sensor_id;sensor_type;location;lat;lon;timestamp;pressure;altitude;pressure_sealevel;temperature;humidity
36304;BME280;22335;49.800;8.596;2022-09-03T00:03:01;100030.47;;;26.42;27.64
36304;BME280;22335;49.800;8.596;2022-09-03T00:09:55;100028.88;;;26.37;27.39
36304;BME280;22335;49.800;8.596;2022-09-03T00:16:49;100028.88;;;26.41;27.40
36304;BME280;22335;49.800;8.596;2022-09-03T00:23:40;100022.06;;;26.38;27.68
36304;BME280;22335;49.800;8.596;2022-09-03T00:30:29;100024.88;;;26.35;28.13
36304;BME280;22335;49.800;8.596;2022-09-03T00:37:16;100028.06;;;26.37;28.33
36304;BME280;22335;49.800;8.596;2022-09-03T00:44:16;100015.66;;;26.34;27.97
36304;BME280;22335;49.800;8.596;2022-09-03T00:51:20;100023.69;;;26.25;28.31
36304;BME280;22335;49.800;8.596;2022-09-03T00:58:20;100012.47;;;26.18;28.44
36304;BME280;22335;49.800;8.596;2022-09-03T01:12:51;100015.28;;;26.04;28.69
36304;BME280;22335;49.800;8.596;2022-09-03T01:19:57;100017.69;;;25.98;28.81
36304;BME280;22335;49.800;8.596;2022-09-03T01:27:05;100011.69;;;25.99;28.84
36304;BME280;22335;49.800;8.596;2022-09-03T01:34:12;100008.09;;;26.03;28.49
36304;BME280;22335;49.800;8.596;2022-09-03T01:41:12;100007.28;;;26.06;28.89
36304;BME280;22335;49.800;8.596;2022-09-03T01:48:30;99950.00;;;25.60;28.39
36304;BME280;22335;49.800;8.596;2022-09-03T01:55:30;99981.25;;;25.80;28.81
36304;BME280;22335;49.800;8.596;2022-09-03T02:02:17;100010.06;;;26.24;28.44
36304;BME280;22335;49.800;8.596;2022-09-03T02:09:06;100025.69;;;26.03;28.90
36304;BME280;22335;49.800;8.596;2022-09-03T02:15:57;99984.03;;;25.76;28.57
36304;BME280;22335;49.800;8.596;2022-09-03T02:22:44;99978.44;;;25.80;29.03
36304;BME280;22335;49.800;8.596;2022-09-03T02:29:31;100025.69;;;26.10;28.88
36304;BME280;22335;49.800;8.596;2022-09-03T02:36:25;100025.69;;;26.03;29.46
36304;BME280;22335;49.800;8.596;2022-09-03T02:43:16;100022.09;;;26.06;29.23
36304;BME280;22335;49.800;8.596;2022-09-03T03:03:58;100026.50;;;26.00;29.50
36304;BME280;22335;49.800;8.596;2022-09-03T03:10:43;100014.09;;;25.97;29.63
36304;BME280;22335;49.800;8.596;2022-09-03T03:17:29;100018.09;;;26.04;29.70
36304;BME280;22335;49.800;8.596;2022-09-03T03:24:17;99952.00;;;25.70;30.02
36304;BME280;22335;49.800;8.596;2022-09-03T03:31:06;100000.88;;;25.98;29.56
36304;BME280;22335;49.800;8.596;2022-09-03T03:37:52;100012.91;;;25.98;29.42
36304;BME280;22335;49.800;8.596;2022-09-03T03:44:43;100017.31;;;25.92;29.83
36304;BME280;22335;49.800;8.596;2022-09-03T03:51:29;100023.28;;;25.91;29.84
36304;BME280;22335;49.800;8.596;2022-09-03T03:58:15;100028.91;;;25.87;30.05
36304;BME280;22335;49.800;8.596;2022-09-03T04:05:04;100020.09;;;25.82;29.98
36304;BME280;22335;49.800;8.596;2022-09-03T04:11:51;100024.44;;;25.79;30.30
36304;BME280;22335;49.800;8.596;2022-09-03T04:18:38;100014.84;;;25.76;30.66
36304;BME280;22335;49.800;8.596;2022-09-03T04:25:27;100000.03;;;25.72;30.50
36304;BME280;22335;49.800;8.596;2022-09-03T04:32:13;100006.03;;;25.67;30.64
36304;BME280;22335;49.800;8.596;2022-09-03T04:39:11;100000.41;;;25.57;30.71
36304;BME280;22335;49.800;8.596;2022-09-03T04:46:00;100002.41;;;25.52;30.95
36304;BME280;22335;49.800;8.596;2022-09-03T04:52:47;100020.03;;;25.60;30.62
36304;BME280;22335;49.800;8.596;2022-09-03T04:59:32;100011.66;;;25.74;30.44
36304;BME280;22335;49.800;8.596;2022-09-03T05:06:21;100033.59;;;25.54;30.88
36304;BME280;22335;49.800;8.596;2022-09-03T05:13:06;100034.44;;;25.55;30.93
36304;BME280;22335;49.800;8.596;2022-09-03T05:19:52;100038.84;;;25.56;30.84
36304;BME280;22335;49.800;8.596;2022-09-03T05:26:40;100032.81;;;25.58;31.12
36304;BME280;22335;49.800;8.596;2022-09-03T05:33:26;100045.22;;;25.60;31.50
36304;BME280;22335;49.800;8.596;2022-09-03T05:40:12;100061.25;;;25.63;31.50
36304;BME280;22335;49.800;8.596;2022-09-03T05:47:00;100073.66;;;25.66;32.11
36304;BME280;22335;49.800;8.596;2022-09-03T05:53:46;100080.84;;;25.67;33.06
36304;BME280;22335;49.800;8.596;2022-09-03T06:00:34;100100.06;;;25.61;34.21
36304;BME280;22335;49.800;8.596;2022-09-03T06:07:23;100098.44;;;25.49;34.97
36304;BME280;22335;49.800;8.596;2022-09-03T06:14:12;100105.59;;;25.43;36.45
36304;BME280;22335;49.800;8.596;2022-09-03T06:20:59;100056.22;;;24.99;37.47
36304;BME280;22335;49.800;8.596;2022-09-03T06:27:50;100112.28;;;25.17;37.02
36304;BME280;22335;49.800;8.596;2022-09-03T06:34:35;100120.63;;;25.10;37.17
36304;BME280;22335;49.800;8.596;2022-09-03T06:41:22;100124.53;;;24.95;37.23
36304;BME280;22335;49.800;8.596;2022-09-03T06:48:13;100136.91;;;24.90;38.38
36304;BME280;22335;49.800;8.596;2022-09-03T06:54:58;100141.31;;;24.95;38.22
36304;BME280;22335;49.800;8.596;2022-09-03T07:01:44;100122.41;;;24.77;39.02
36304;BME280;22335;49.800;8.596;2022-09-03T07:08:33;100093.94;;;24.65;38.04
36304;BME280;22335;49.800;8.596;2022-09-03T07:15:19;100142.94;;;24.99;38.43
36304;BME280;22335;49.800;8.596;2022-09-03T07:22:05;100138.94;;;24.97;38.59
36304;BME280;22335;49.800;8.596;2022-09-03T07:28:53;100138.97;;;25.07;37.90
36304;BME280;22335;49.800;8.596;2022-09-03T07:35:39;100077.44;;;24.42;38.47
36304;BME280;22335;49.800;8.596;2022-09-03T07:42:24;100154.81;;;24.78;38.75
36304;BME280;22335;49.800;8.596;2022-09-03T07:49:14;100098.47;;;24.28;40.34
36304;BME280;22335;49.800;8.596;2022-09-03T07:56:02;100155.88;;;24.63;40.60
36304;BME280;22335;49.800;8.596;2022-09-03T08:02:50;100164.66;;;24.61;40.85
36304;BME280;22335;49.800;8.596;2022-09-03T08:09:39;100164.25;;;24.59;41.05
36304;BME280;22335;49.800;8.596;2022-09-03T08:16:25;100172.25;;;24.65;41.42
36304;BME280;22335;49.800;8.596;2022-09-03T08:23:12;100133.81;;;24.51;41.54
36304;BME280;22335;49.800;8.596;2022-09-03T08:30:00;100145.47;;;24.60;41.52
36304;BME280;22335;49.800;8.596;2022-09-03T08:36:48;100152.25;;;24.59;41.82
36304;BME280;22335;49.800;8.596;2022-09-03T08:43:45;100126.44;;;24.32;42.68
36304;BME280;22335;49.800;8.596;2022-09-03T08:50:58;100163.88;;;24.65;41.95
36304;BME280;22335;49.800;8.596;2022-09-03T08:57:52;100173.50;;;24.71;42.42
36304;BME280;22335;49.800;8.596;2022-09-03T09:04:52;100178.41;;;24.81;42.56
36304;BME280;22335;49.800;8.596;2022-09-03T09:11:57;100193.25;;;24.92;42.06
36304;BME280;22335;49.800;8.596;2022-09-03T09:18:58;100111.69;;;24.35;42.48
36304;BME280;22335;49.800;8.596;2022-09-03T09:25:53;100213.22;;;24.87;42.98
36304;BME280;22335;49.800;8.596;2022-09-03T09:32:43;100199.59;;;24.85;43.08
36304;BME280;22335;49.800;8.596;2022-09-03T09:39:30;100137.06;;;24.56;42.91
36304;BME280;22335;49.800;8.596;2022-09-03T09:46:20;100200.50;;;25.00;43.66
36304;BME280;22335;49.800;8.596;2022-09-03T09:53:11;100206.09;;;25.00;43.23
36304;BME280;22335;49.800;8.596;2022-09-03T10:00:05;100215.84;;;25.17;43.16
36304;BME280;22335;49.800;8.596;2022-09-03T10:06:54;100204.81;;;25.46;42.72
36304;BME280;22335;49.800;8.596;2022-09-03T10:13:45;100192.06;;;25.56;43.03
36304;BME280;22335;49.800;8.596;2022-09-03T10:20:35;100193.66;;;25.57;42.86
36304;BME280;22335;49.800;8.596;2022-09-03T10:27:25;100197.22;;;25.46;43.50
36304;BME280;22335;49.800;8.596;2022-09-03T10:34:21;100150.34;;;25.33;43.18
36304;BME280;22335;49.800;8.596;2022-09-03T10:41:26;100197.81;;;25.91;43.81
36304;BME280;22335;49.800;8.596;2022-09-03T10:48:34;100207.09;;;26.10;43.32
36304;BME280;22335;49.800;8.596;2022-09-03T10:55:55;100185.81;;;25.94;43.75
36304;BME280;22335;49.800;8.596;2022-09-03T11:02:58;100179.03;;;25.99;43.60
36304;BME280;22335;49.800;8.596;2022-09-03T11:10:12;100181.06;;;26.13;43.91
36304;BME280;22335;49.800;8.596;2022-09-03T11:17:10;100178.69;;;26.26;44.06
36304;BME280;22335;49.800;8.596;2022-09-03T11:24:05;100178.31;;;26.45;43.89
36304;BME280;22335;49.800;8.596;2022-09-03T11:31:05;100163.50;;;26.66;43.75
36304;BME280;22335;49.800;8.596;2022-09-03T11:38:07;100156.69;;;26.78;43.52
36304;BME280;22335;49.800;8.596;2022-09-03T11:45:19;100150.69;;;26.79;43.57
36304;BME280;22335;49.800;8.596;2022-09-03T11:52:06;100135.03;;;26.85;43.75
36304;BME280;22335;49.800;8.596;2022-09-03T11:59:15;100147.84;;;27.01;43.57
36304;BME280;22335;49.800;8.596;2022-09-03T12:06:16;100144.22;;;26.97;43.71
36304;BME280;22335;49.800;8.596;2022-09-03T12:13:29;100148.22;;;27.10;43.82
36304;BME280;22335;49.800;8.596;2022-09-03T12:20:27;100139.41;;;27.04;43.47
36304;BME280;22335;49.800;8.596;2022-09-03T12:27:16;100125.34;;;27.08;43.22
36304;BME280;22335;49.800;8.596;2022-09-03T12:34:09;100126.47;;;27.39;43.05
36304;BME280;22335;49.800;8.596;2022-09-03T12:40:58;100120.78;;;27.57;43.04
36304;BME280;22335;49.800;8.596;2022-09-03T12:48:11;100113.47;;;27.74;42.72
36304;BME280;22335;49.800;8.596;2022-09-03T12:55:01;100107.00;;;27.88;42.59
36304;BME280;22335;49.800;8.596;2022-09-03T13:01:53;100118.59;;;27.93;42.80
36304;BME280;22335;49.800;8.596;2022-09-03T13:08:45;100126.13;;;28.07;42.42
36304;BME280;22335;49.800;8.596;2022-09-03T13:15:32;100133.34;;;28.08;42.30
36304;BME280;22335;49.800;8.596;2022-09-03T13:22:26;100128.47;;;28.19;42.44
36304;BME280;22335;49.800;8.596;2022-09-03T13:29:38;100134.75;;;28.38;42.29
36304;BME280;22335;49.800;8.596;2022-09-03T13:36:40;100135.16;;;28.36;41.41
36304;BME280;22335;49.800;8.596;2022-09-03T13:43:32;100142.75;;;28.43;41.47
36304;BME280;22335;49.800;8.596;2022-09-03T13:50:23;100129.06;;;28.48;41.69
36304;BME280;22335;49.800;8.596;2022-09-03T13:57:24;100120.53;;;28.59;41.33
36304;BME280;22335;49.800;8.596;2022-09-03T14:04:21;100121.41;;;28.49;40.73
36304;BME280;22335;49.800;8.596;2022-09-03T14:11:20;100089.31;;;28.39;40.90
36304;BME280;22335;49.800;8.596;2022-09-03T14:18:14;100110.41;;;28.65;41.07
36304;BME280;22335;49.800;8.596;2022-09-03T14:25:15;100047.22;;;28.28;40.69
36304;BME280;22335;49.800;8.596;2022-09-03T14:32:23;100105.78;;;28.86;40.41
36304;BME280;22335;49.800;8.596;2022-09-03T14:39:29;100106.78;;;29.06;40.15
36304;BME280;22335;49.800;8.596;2022-09-03T14:46:31;100105.97;;;29.09;40.54
36304;BME280;22335;49.800;8.596;2022-09-03T14:53:39;100110.06;;;28.98;40.32
36304;BME280;22335;49.800;8.596;2022-09-03T15:00:48;100100.09;;;28.93;40.33
36304;BME280;22335;49.800;8.596;2022-09-03T15:07:45;100039.69;;;28.63;40.21
36304;BME280;22335;49.800;8.596;2022-09-03T15:14:38;100101.41;;;28.81;39.91
36304;BME280;22335;49.800;8.596;2022-09-03T15:21:43;100062.47;;;28.27;40.39
36304;BME280;22335;49.800;8.596;2022-09-03T15:28:48;100107.44;;;28.35;40.49
36304;BME280;22335;49.800;8.596;2022-09-03T15:36:02;100109.78;;;28.47;40.65
36304;BME280;22335;49.800;8.596;2022-09-03T15:42:59;100104.44;;;28.60;40.85
36304;BME280;22335;49.800;8.596;2022-09-03T15:49:57;100107.53;;;28.72;40.82
36304;BME280;22335;49.800;8.596;2022-09-03T15:56:49;100123.84;;;28.88;40.39
36304;BME280;22335;49.800;8.596;2022-09-03T16:03:42;100117.56;;;28.73;40.56
36304;BME280;22335;49.800;8.596;2022-09-03T16:10:51;100114.72;;;28.77;40.57
36304;BME280;22335;49.800;8.596;2022-09-03T16:17:52;100099.69;;;28.91;40.80
36304;BME280;22335;49.800;8.596;2022-09-03T16:24:46;100106.84;;;29.03;40.85
36304;BME280;22335;49.800;8.596;2022-09-03T16:31:47;100116.38;;;29.12;40.43
36304;BME280;22335;49.800;8.596;2022-09-03T16:38:45;100107.59;;;29.07;40.98
36304;BME280;22335;49.800;8.596;2022-09-03T16:45:44;100135.97;;;29.23;41.14
36304;BME280;22335;49.800;8.596;2022-09-03T16:52:47;100148.84;;;29.24;41.22
36304;BME280;22335;49.800;8.596;2022-09-03T17:00:04;100159.97;;;28.97;41.92
36304;BME280;22335;49.800;8.596;2022-09-03T17:07:05;100171.94;;;28.63;42.35
36304;BME280;22335;49.800;8.596;2022-09-03T17:14:15;100154.88;;;28.33;42.58
36304;BME280;22335;49.800;8.596;2022-09-03T17:21:18;100158.16;;;28.20;42.12
36304;BME280;22335;49.800;8.596;2022-09-03T17:28:20;100163.06;;;28.13;42.38
36304;BME280;22335;49.800;8.596;2022-09-03T17:35:16;100154.66;;;28.09;41.97
36304;BME280;22335;49.800;8.596;2022-09-03T17:42:13;100158.22;;;28.13;41.35
36304;BME280;22335;49.800;8.596;2022-09-03T17:49:01;100170.53;;;28.34;41.44
36304;BME280;22335;49.800;8.596;2022-09-03T17:55:56;100191.56;;;28.11;41.44
36304;BME280;22335;49.800;8.596;2022-09-03T18:02:51;100166.41;;;27.90;41.29
36304;BME280;22335;49.800;8.596;2022-09-03T18:09:48;100216.94;;;28.04;41.27
36304;BME280;22335;49.800;8.596;2022-09-03T18:16:46;100229.41;;;27.96;41.64
36304;BME280;22335;49.800;8.596;2022-09-03T18:23:49;100173.75;;;27.55;41.64
36304;BME280;22335;49.800;8.596;2022-09-03T18:30:50;100248.31;;;27.92;41.95
36304;BME280;22335;49.800;8.596;2022-09-03T18:37:51;100248.34;;;27.85;41.52
36304;BME280;22335;49.800;8.596;2022-09-03T18:44:57;100254.38;;;27.76;41.93
36304;BME280;22335;49.800;8.596;2022-09-03T18:52:08;100256.81;;;27.70;42.03
36304;BME280;22335;49.800;8.596;2022-09-03T18:59:26;100242.81;;;27.59;42.12
36304;BME280;22335;49.800;8.596;2022-09-03T19:06:46;100233.19;;;27.43;42.08
36304;BME280;22335;49.800;8.596;2022-09-03T19:13:50;100265.25;;;27.63;42.21
36304;BME280;22335;49.800;8.596;2022-09-03T19:20:59;100263.28;;;27.56;41.99
36304;BME280;22335;49.800;8.596;2022-09-03T19:28:20;100260.84;;;27.58;42.16
36304;BME280;22335;49.800;8.596;2022-09-03T19:35:22;100266.06;;;27.64;41.86
36304;BME280;22335;49.800;8.596;2022-09-03T19:42:39;100270.47;;;27.61;42.52
36304;BME280;22335;49.800;8.596;2022-09-03T19:49:52;100274.88;;;27.58;42.29
36304;BME280;22335;49.800;8.596;2022-09-03T19:56:56;100251.28;;;27.27;42.33
36304;BME280;22335;49.800;8.596;2022-09-03T20:03:58;100288.16;;;27.44;42.69
36304;BME280;22335;49.800;8.596;2022-09-03T20:11:01;100288.16;;;27.40;42.54
36304;BME280;22335;49.800;8.596;2022-09-03T20:17:55;100303.44;;;27.32;42.43
36304;BME280;22335;49.800;8.596;2022-09-03T20:24:56;100301.84;;;27.27;42.76
36304;BME280;22335;49.800;8.596;2022-09-03T20:31:56;100308.66;;;27.23;42.66
36304;BME280;22335;49.800;8.596;2022-09-03T20:39:05;100261.31;;;26.85;42.76
36304;BME280;22335;49.800;8.596;2022-09-03T20:46:30;100303.03;;;27.08;42.87
36304;BME280;22335;49.800;8.596;2022-09-03T20:53:46;100313.03;;;26.99;42.88
36304;BME280;22335;49.800;8.596;2022-09-03T21:00:46;100325.47;;;26.90;42.95
36304;BME280;22335;49.800;8.596;2022-09-03T21:07:48;100323.44;;;26.80;42.85
36304;BME280;22335;49.800;8.596;2022-09-03T21:14:41;100329.44;;;26.72;43.10
36304;BME280;22335;49.800;8.596;2022-09-03T21:21:40;100325.84;;;26.60;43.45
36304;BME280;22335;49.800;8.596;2022-09-03T21:28:38;100276.78;;;26.15;43.38
36304;BME280;22335;49.800;8.596;2022-09-03T21:35:27;100343.41;;;26.54;43.94
36304;BME280;22335;49.800;8.596;2022-09-03T21:42:18;100341.03;;;26.49;43.75
36304;BME280;22335;49.800;8.596;2022-09-03T21:49:13;100357.84;;;26.49;44.27
36304;BME280;22335;49.800;8.596;2022-09-03T21:56:21;100353.00;;;26.45;43.88
36304;BME280;22335;49.800;8.596;2022-09-03T22:03:21;100367.41;;;26.44;44.23
36304;BME280;22335;49.800;8.596;2022-09-03T22:10:14;100366.59;;;26.36;43.90
36304;BME280;22335;49.800;8.596;2022-09-03T22:17:10;100366.94;;;26.28;44.13
36304;BME280;22335;49.800;8.596;2022-09-03T22:24:07;100366.09;;;26.20;44.13
36304;BME280;22335;49.800;8.596;2022-09-03T22:31:11;100360.09;;;26.14;44.50
36304;BME280;22335;49.800;8.596;2022-09-03T22:38:12;100370.06;;;26.08;44.41
36304;BME280;22335;49.800;8.596;2022-09-03T22:45:28;100362.81;;;26.00;44.26
36304;BME280;22335;49.800;8.596;2022-09-03T22:52:39;100360.78;;;25.93;44.33
36304;BME280;22335;49.800;8.596;2022-09-03T22:59:32;100367.16;;;25.87;44.88
36304;BME280;22335;49.800;8.596;2022-09-03T23:06:25;100366.25;;;25.79;44.92
36304;BME280;22335;49.800;8.596;2022-09-03T23:13:18;100374.66;;;25.79;44.37
36304;BME280;22335;49.800;8.596;2022-09-03T23:20:09;100377.47;;;25.79;44.65
36304;BME280;22335;49.800;8.596;2022-09-03T23:27:01;100384.63;;;25.73;44.59
36304;BME280;22335;49.800;8.596;2022-09-03T23:33:53;100384.16;;;25.64;44.79
36304;BME280;22335;49.800;8.596;2022-09-03T23:40:45;100327.81;;;25.21;45.05
36304;BME280;22335;49.800;8.596;2022-09-03T23:47:38;100397.28;;;25.52;45.08
36304;BME280;22335;49.800;8.596;2022-09-03T23:54:37;100396.38;;;25.41;44.78
